createdAt,value
2023-04-28T00:01:16.758Z,5.59
2023-04-28T00:03:43.582Z,5.55
2023-04-28T00:06:11.331Z,5.58
2023-04-28T00:08:37.964Z,5.56
2023-04-28T00:11:08.981Z,5.56
2023-04-28T00:13:35.688Z,5.55
2023-04-28T00:16:02.302Z,5.47
2023-04-28T00:18:29.120Z,5.47
2023-04-28T00:20:56.480Z,5.42
2023-04-28T00:23:23.048Z,5.36
2023-04-28T00:25:53.529Z,5.35
2023-04-28T00:28:32.950Z,5.31
2023-04-28T00:31:00.414Z,5.31
2023-04-28T00:33:26.882Z,5.29
2023-04-28T00:36:02.538Z,5.34
2023-04-28T00:38:29.121Z,5.35
2023-04-28T00:40:55.701Z,5.36
2023-04-28T00:43:22.251Z,5.37
2023-04-28T00:45:52.314Z,5.44
2023-04-28T00:48:19.471Z,5.47
2023-04-28T00:50:47.661Z,5.47
2023-04-28T00:53:14.649Z,5.48
2023-04-28T00:55:41.356Z,5.46
2023-04-28T00:58:09.463Z,5.44
2023-04-28T01:00:36.021Z,5.45
2023-04-28T01:03:03.166Z,5.47
2023-04-28T01:05:30.638Z,5.50
2023-04-28T01:07:57.235Z,5.52
2023-04-28T01:10:23.697Z,5.53
2023-04-28T01:12:50.336Z,5.52
2023-04-28T01:15:20.131Z,5.46
2023-04-28T01:17:47.443Z,5.41
2023-04-28T01:20:14.785Z,5.36
2023-04-28T01:22:41.551Z,5.32
2023-04-28T01:25:08.398Z,5.28
2023-04-28T01:27:35.074Z,5.30
2023-04-28T01:30:01.586Z,5.36
2023-04-28T01:32:28.212Z,5.39
2023-04-28T01:34:54.748Z,5.44
2023-04-28T01:37:21.330Z,5.47
2023-04-28T01:39:47.834Z,5.49
2023-04-28T01:42:14.328Z,5.50
2023-04-28T01:44:41.243Z,5.50
2023-04-28T01:47:07.772Z,5.52
2023-04-28T01:49:34.326Z,5.52
2023-04-28T01:52:00.899Z,5.53
2023-04-28T01:54:27.992Z,5.53
2023-04-28T01:56:54.540Z,5.53
2023-04-28T01:59:21.115Z,5.53
2023-04-28T02:01:47.703Z,5.49
2023-04-28T02:04:14.451Z,5.46
2023-04-28T02:06:41.134Z,5.44
2023-04-28T02:09:07.652Z,5.48
2023-04-28T02:11:34.145Z,5.58
2023-04-28T02:14:00.675Z,5.64
2023-04-28T02:16:27.332Z,5.69
2023-04-28T02:18:53.976Z,5.70
2023-04-28T02:21:20.470Z,5.62
2023-04-28T02:23:47.539Z,5.56
2023-04-28T02:26:14.574Z,5.56
2023-04-28T02:28:41.132Z,5.54
2023-04-28T02:31:09.417Z,5.57
2023-04-28T02:33:36.742Z,5.62
2023-04-28T02:36:05.019Z,5.70
2023-04-28T02:38:31.952Z,5.76
2023-04-28T02:41:05.555Z,5.77
2023-04-28T02:43:33.160Z,5.71
2023-04-28T02:45:59.745Z,5.66
2023-04-28T02:48:27.313Z,5.61
2023-04-28T02:50:53.867Z,5.55
2023-04-28T02:53:21.181Z,5.48
2023-04-28T02:55:48.175Z,5.45
2023-04-28T02:58:15.264Z,5.44
2023-04-28T03:00:41.778Z,5.47
2023-04-28T03:03:08.344Z,5.53
2023-04-28T03:05:34.913Z,5.56
2023-04-28T03:08:01.716Z,5.55
2023-04-28T03:10:28.228Z,5.56
2023-04-28T03:12:54.780Z,5.58
2023-04-28T03:15:21.476Z,5.59
2023-04-28T03:17:48.039Z,5.64
2023-04-28T03:20:14.753Z,5.63
2023-04-28T03:22:41.277Z,5.64
2023-04-28T03:25:08.187Z,5.66
2023-04-28T03:27:34.752Z,5.69
2023-04-28T03:30:01.213Z,5.75
2023-04-28T03:32:27.820Z,5.79
2023-04-28T03:34:54.383Z,5.88
2023-04-28T03:37:20.891Z,5.92
2023-04-28T03:39:47.482Z,5.94
2023-04-28T03:42:14.073Z,5.95
2023-04-28T03:44:40.583Z,5.95
2023-04-28T03:47:07.139Z,5.95
2023-04-28T03:49:33.656Z,5.93
2023-04-28T03:52:00.183Z,5.97
2023-04-28T03:54:26.653Z,5.97
2023-04-28T03:56:53.179Z,5.95
2023-04-28T03:59:19.663Z,5.98
2023-04-28T04:01:46.274Z,6.05
2023-04-28T04:04:13.339Z,6.12
2023-04-28T04:06:39.950Z,6.17
2023-04-28T04:09:06.554Z,6.23
2023-04-28T04:11:33.057Z,6.27
2023-04-28T04:13:59.602Z,6.26
2023-04-28T04:16:26.325Z,6.30
2023-04-28T04:18:52.916Z,6.38
2023-04-28T04:21:19.413Z,6.44
2023-04-28T04:23:46.100Z,6.49
2023-04-28T04:26:12.592Z,6.48
2023-04-28T04:28:39.112Z,6.50
2023-04-28T04:31:05.679Z,6.58
2023-04-28T04:33:32.205Z,6.63
2023-04-28T04:35:58.911Z,6.67
2023-04-28T04:38:25.564Z,6.71
2023-04-28T04:40:52.394Z,6.75
2023-04-28T04:43:18.926Z,6.76
2023-04-28T04:45:45.892Z,6.73
2023-04-28T04:48:12.488Z,6.76
2023-04-28T04:50:39.317Z,6.80
2023-04-28T04:53:05.877Z,6.88
2023-04-28T04:55:32.520Z,6.94
2023-04-28T04:57:59.234Z,7.01
2023-04-28T05:00:25.896Z,7.02
2023-04-28T05:02:52.507Z,7.05
2023-04-28T05:05:21.825Z,7.11
2023-04-28T05:07:49.101Z,7.20
2023-04-28T05:10:15.616Z,7.29
2023-04-28T05:12:42.123Z,7.39
2023-04-28T05:15:09.102Z,7.49
2023-04-28T05:17:35.668Z,7.57
2023-04-28T05:20:02.166Z,7.61
2023-04-28T05:22:28.673Z,7.70
2023-04-28T05:24:55.214Z,7.81
2023-04-28T05:27:21.707Z,7.93
2023-04-28T05:29:48.296Z,7.96
2023-04-28T05:32:14.855Z,8.03
2023-04-28T05:34:41.366Z,8.13
2023-04-28T05:37:07.877Z,8.20
2023-04-28T05:39:34.353Z,8.31
2023-04-28T05:42:00.866Z,8.49
2023-04-28T05:44:27.382Z,8.54
2023-04-28T05:46:54.079Z,8.54
2023-04-28T05:49:20.856Z,8.61
2023-04-28T05:51:47.403Z,8.70
2023-04-28T05:54:14.283Z,8.78
2023-04-28T05:56:41.087Z,8.76
2023-04-28T05:59:07.664Z,8.75
2023-04-28T06:01:34.222Z,8.76
2023-04-28T06:04:01.258Z,8.73
2023-04-28T06:06:28.221Z,8.72
2023-04-28T06:08:54.972Z,8.72
2023-04-28T06:11:22.524Z,8.72
2023-04-28T06:13:50.933Z,8.69
2023-04-28T06:16:18.905Z,8.67
2023-04-28T06:18:47.274Z,8.65
2023-04-28T06:21:16.707Z,8.58
2023-04-28T06:23:43.337Z,8.59
2023-04-28T06:26:10.045Z,8.57
2023-04-28T06:28:36.571Z,8.60
2023-04-28T06:31:03.141Z,8.60
2023-04-28T06:33:29.726Z,8.61
2023-04-28T06:35:56.640Z,8.64
2023-04-28T06:38:23.353Z,8.65
2023-04-28T06:40:49.922Z,8.61
2023-04-28T06:43:16.538Z,8.67
2023-04-28T06:45:43.089Z,8.75
2023-04-28T06:48:10.240Z,8.83
2023-04-28T06:50:37.577Z,8.94
2023-04-28T06:53:04.102Z,9.06
2023-04-28T06:55:30.652Z,9.12
2023-04-28T06:57:57.222Z,9.11
2023-04-28T07:00:23.992Z,9.22
2023-04-28T07:02:50.738Z,9.27
2023-04-28T07:05:17.436Z,9.32
2023-04-28T07:07:44.139Z,9.33
2023-04-28T07:10:11.353Z,9.40
2023-04-28T07:12:37.977Z,9.38
2023-04-28T07:15:04.894Z,9.43
2023-04-28T07:17:31.435Z,9.51
2023-04-28T07:19:57.924Z,9.53
2023-04-28T07:22:24.603Z,9.58
2023-04-28T07:24:51.362Z,9.56
2023-04-28T07:27:17.901Z,9.55
2023-04-28T07:29:44.404Z,9.61
2023-04-28T07:32:11.195Z,9.66
2023-04-28T07:34:37.823Z,9.75
2023-04-28T07:37:05.247Z,9.90
2023-04-28T07:39:33.998Z,10.08
2023-04-28T07:42:02.633Z,10.29
2023-04-28T07:44:30.116Z,10.56
2023-04-28T07:46:57.062Z,10.73
2023-04-28T07:49:23.631Z,10.79
2023-04-28T07:51:52.178Z,10.92
2023-04-28T07:54:18.897Z,10.99
2023-04-28T07:56:45.772Z,10.97
2023-04-28T07:59:12.361Z,11.01
2023-04-28T08:01:38.906Z,10.95
2023-04-28T08:04:05.681Z,10.92
2023-04-28T08:06:33.639Z,10.91
2023-04-28T08:09:02.088Z,10.91
2023-04-28T08:11:28.595Z,10.89
2023-04-28T08:13:56.812Z,10.90
2023-04-28T08:16:23.625Z,10.89
2023-04-28T08:18:50.295Z,10.88
2023-04-28T08:21:16.810Z,10.82
2023-04-28T08:23:43.315Z,10.78
2023-04-28T08:26:09.814Z,10.71
2023-04-28T08:28:36.313Z,10.72
2023-04-28T08:31:05.417Z,10.71
2023-04-28T08:33:31.967Z,10.72
2023-04-28T08:35:58.561Z,10.72
2023-04-28T08:38:25.896Z,10.82
2023-04-28T08:40:52.589Z,10.92
2023-04-28T08:43:21.510Z,11.04
2023-04-28T08:45:48.000Z,11.09
2023-04-28T08:48:22.556Z,11.13
2023-04-28T08:50:53.541Z,11.19
2023-04-28T08:53:25.562Z,11.30
2023-04-28T08:55:56.550Z,11.38
2023-04-28T08:58:24.805Z,11.47
2023-04-28T09:00:54.765Z,11.54
2023-04-28T09:03:22.046Z,11.61
2023-04-28T09:05:49.107Z,11.63
2023-04-28T09:08:15.769Z,11.65
2023-04-28T09:10:42.431Z,11.64
2023-04-28T09:13:09.013Z,11.65
2023-04-28T09:15:37.556Z,11.55
2023-04-28T09:18:06.177Z,11.53
2023-04-28T09:20:34.146Z,11.46
2023-04-28T09:23:34.088Z,11.39
2023-04-28T09:26:02.561Z,11.37
2023-04-28T09:28:29.863Z,11.40
2023-04-28T09:30:57.151Z,11.25
2023-04-28T09:33:23.859Z,11.28
2023-04-28T09:35:50.516Z,11.31
2023-04-28T09:38:19.054Z,11.28
2023-04-28T09:40:51.827Z,11.25
2023-04-28T09:43:32.288Z,11.34
2023-04-28T09:46:00.973Z,11.32
2023-04-28T09:48:28.571Z,11.39
2023-04-28T09:50:56.633Z,11.45
2023-04-28T09:53:24.718Z,11.39
2023-04-28T09:55:53.311Z,11.33
2023-04-28T09:58:24.537Z,11.44
2023-04-28T10:00:56.840Z,11.48
2023-04-28T10:03:27.564Z,11.55
2023-04-28T10:05:58.008Z,11.58
2023-04-28T10:08:25.868Z,11.64
2023-04-28T10:10:56.863Z,11.58
2023-04-28T10:13:24.475Z,11.65
2023-04-28T10:15:54.797Z,11.54
2023-04-28T10:18:23.525Z,11.61
2023-04-28T10:20:55.764Z,11.90
2023-04-28T10:23:44.726Z,12.24
2023-04-28T10:26:14.199Z,12.33
2023-04-28T10:28:48.495Z,12.27
2023-04-28T10:31:17.562Z,12.23
2023-04-28T10:33:44.741Z,12.03
2023-04-28T10:36:11.615Z,11.96
2023-04-28T10:39:14.276Z,11.86
2023-04-28T10:41:41.787Z,11.83
2023-04-28T10:44:30.153Z,11.87
2023-04-28T10:47:04.551Z,11.86
2023-04-28T10:49:58.896Z,11.84
2023-04-28T10:52:38.096Z,11.81
2023-04-28T10:55:33.611Z,11.85
2023-04-28T10:58:15.117Z,11.89
2023-04-28T11:00:42.573Z,11.85
2023-04-28T11:03:09.290Z,11.79
2023-04-28T11:05:36.676Z,11.78
2023-04-28T11:08:31.696Z,11.73
2023-04-28T11:11:10.275Z,11.74
2023-04-28T11:13:37.546Z,11.69
2023-04-28T11:16:07.012Z,11.58
2023-04-28T11:19:05.745Z,11.58
2023-04-28T11:21:33.092Z,11.66
2023-04-28T11:23:59.820Z,11.72
2023-04-28T11:26:28.114Z,11.76
2023-04-28T11:28:56.819Z,11.87
2023-04-28T11:31:25.310Z,12.01
2023-04-28T11:33:51.842Z,12.11
2023-04-28T11:36:26.539Z,12.12
2023-04-28T11:38:53.087Z,12.16
2023-04-28T11:41:19.642Z,12.05
2023-04-28T11:43:47.670Z,12.02
2023-04-28T11:46:23.052Z,12.00
2023-04-28T11:49:00.938Z,12.03
2023-04-28T11:51:32.374Z,12.01
2023-04-28T11:53:59.632Z,11.98
2023-04-28T11:56:26.641Z,11.97
2023-04-28T11:59:04.681Z,12.01
2023-04-28T12:01:32.586Z,12.06
2023-04-28T12:03:59.374Z,12.05
2023-04-28T12:06:26.008Z,12.02
2023-04-28T12:08:52.876Z,12.05
2023-04-28T12:11:22.007Z,12.05
2023-04-28T12:14:06.382Z,12.01
2023-04-28T12:16:44.657Z,12.09
2023-04-28T12:19:12.594Z,12.08
2023-04-28T12:21:40.095Z,12.07
2023-04-28T12:24:21.385Z,12.00
2023-04-28T12:26:49.125Z,12.02
2023-04-28T12:29:39.278Z,11.91
2023-04-28T12:32:10.687Z,11.92
2023-04-28T12:34:39.828Z,11.93
2023-04-28T12:37:06.683Z,12.07
2023-04-28T12:39:37.055Z,12.22
2023-04-28T12:42:06.220Z,12.28
2023-04-28T12:44:37.522Z,12.34
2023-04-28T12:47:08.458Z,12.40
2023-04-28T12:49:36.146Z,12.34
2023-04-28T12:52:04.089Z,12.27
2023-04-28T12:54:31.173Z,12.18
2023-04-28T12:56:57.757Z,12.22
2023-04-28T12:59:24.317Z,12.23
2023-04-28T13:01:51.229Z,12.27
2023-04-28T13:04:18.613Z,12.11
2023-04-28T13:06:45.522Z,12.06
2023-04-28T13:09:12.427Z,12.05
2023-04-28T13:11:39.661Z,11.98
2023-04-28T13:14:06.352Z,11.96
2023-04-28T13:16:33.837Z,12.01
2023-04-28T13:19:01.626Z,12.01
2023-04-28T13:21:28.662Z,12.05
2023-04-28T13:23:56.670Z,12.14
2023-04-28T13:26:26.908Z,12.16
2023-04-28T13:28:53.492Z,12.13
2023-04-28T13:31:20.131Z,12.12
2023-04-28T13:33:46.895Z,12.18
2023-04-28T13:36:13.784Z,12.28
2023-04-28T13:38:40.351Z,12.32
2023-04-28T13:41:07.675Z,12.35
2023-04-28T13:43:34.241Z,12.27
2023-04-28T13:46:01.596Z,12.38
2023-04-28T13:48:29.206Z,12.35
2023-04-28T13:50:55.882Z,12.45
2023-04-28T13:53:22.553Z,12.65
2023-04-28T13:55:50.782Z,13.32
2023-04-28T13:58:17.595Z,13.99
2023-04-28T14:00:44.140Z,13.78
2023-04-28T14:03:11.520Z,13.54
2023-04-28T14:05:48.387Z,13.23
2023-04-28T14:08:18.226Z,13.17
2023-04-28T14:10:47.517Z,12.98
2023-04-28T14:13:14.328Z,12.84
2023-04-28T14:15:54.652Z,12.89
2023-04-28T14:18:25.521Z,13.05
2023-04-28T14:20:52.009Z,13.15
2023-04-28T14:23:18.508Z,13.29
2023-04-28T14:25:45.170Z,13.42
2023-04-28T14:28:11.734Z,13.49
2023-04-28T14:30:38.478Z,13.54
2023-04-28T14:33:05.235Z,13.59
2023-04-28T14:35:32.546Z,13.37
2023-04-28T14:37:59.111Z,13.30
2023-04-28T14:40:25.791Z,13.30
2023-04-28T14:42:53.024Z,13.35
2023-04-28T14:45:19.958Z,13.25
2023-04-28T14:47:46.969Z,13.07
2023-04-28T14:50:14.235Z,13.05
2023-04-28T14:52:41.300Z,12.90
2023-04-28T14:55:08.249Z,12.85
2023-04-28T14:57:35.257Z,12.80
2023-04-28T15:00:03.915Z,12.78
2023-04-28T15:02:30.648Z,12.72
2023-04-28T15:04:57.325Z,12.72
2023-04-28T15:07:26.516Z,12.71
2023-04-28T15:09:52.978Z,12.69
2023-04-28T15:12:21.033Z,12.65
2023-04-28T15:14:47.731Z,12.61
2023-04-28T15:17:14.480Z,12.59
2023-04-28T15:19:40.940Z,12.58
2023-04-28T15:22:07.525Z,12.52
2023-04-28T15:24:34.060Z,12.48
2023-04-28T15:27:00.580Z,12.46
2023-04-28T15:29:27.087Z,12.44
2023-04-28T15:31:53.689Z,12.41
2023-04-28T15:34:20.259Z,12.37
2023-04-28T15:36:46.870Z,12.34
2023-04-28T15:39:13.594Z,12.24
2023-04-28T15:41:40.196Z,12.18
2023-04-28T15:44:07.397Z,12.10
2023-04-28T15:46:36.410Z,12.02
2023-04-28T15:49:03.092Z,11.96
2023-04-28T15:51:29.668Z,11.94
2023-04-28T15:53:57.084Z,12.02
2023-04-28T15:56:23.856Z,12.00
2023-04-28T15:58:50.968Z,11.98
2023-04-28T16:01:18.341Z,11.96
2023-04-28T16:03:47.904Z,11.95
2023-04-28T16:06:14.819Z,11.96
2023-04-28T16:08:41.359Z,12.05
2023-04-28T16:11:08.210Z,12.02
2023-04-28T16:13:37.209Z,12.03
2023-04-28T16:16:05.547Z,12.02
2023-04-28T16:18:33.024Z,12.02
2023-04-28T16:20:59.840Z,12.00
2023-04-28T16:23:26.781Z,12.00
2023-04-28T16:25:54.118Z,11.97
2023-04-28T16:28:20.765Z,11.98
2023-04-28T16:30:47.596Z,11.91
2023-04-28T16:33:14.180Z,11.88
2023-04-28T16:35:40.804Z,11.83
2023-04-28T16:38:08.791Z,11.72
2023-04-28T16:40:35.372Z,11.56
2023-04-28T16:43:01.940Z,11.42
2023-04-28T16:45:29.231Z,11.34
2023-04-28T16:47:56.004Z,11.24
2023-04-28T16:50:22.507Z,11.23
2023-04-28T16:52:49.054Z,11.21
2023-04-28T16:55:15.530Z,11.13
2023-04-28T16:57:42.224Z,11.09
2023-04-28T17:00:09.426Z,11.08
2023-04-28T17:02:35.979Z,11.07
2023-04-28T17:05:02.637Z,11.06
2023-04-28T17:07:29.128Z,11.09
2023-04-28T17:09:55.950Z,11.03
2023-04-28T17:12:23.369Z,11.02
2023-04-28T17:14:52.874Z,11.04
2023-04-28T17:17:19.391Z,11.13
2023-04-28T17:19:45.941Z,11.06
2023-04-28T17:22:12.656Z,11.05
2023-04-28T17:24:39.190Z,11.02
2023-04-28T17:27:05.950Z,11.05
2023-04-28T17:29:32.449Z,11.04
2023-04-28T17:31:58.941Z,11.03
2023-04-28T17:34:25.449Z,11.01
2023-04-28T17:36:52.005Z,11.03
2023-04-28T17:39:19.155Z,11.02
2023-04-28T17:41:46.887Z,10.98
2023-04-28T17:44:13.429Z,10.99
2023-04-28T17:46:40.029Z,10.99
2023-04-28T17:49:06.626Z,10.97
2023-04-28T17:51:33.106Z,10.96
2023-04-28T17:53:59.813Z,10.95
2023-04-28T17:56:26.997Z,10.93
2023-04-28T17:58:53.574Z,10.92
2023-04-28T18:01:20.103Z,10.90
2023-04-28T18:03:46.785Z,10.88
2023-04-28T18:06:13.853Z,10.85
2023-04-28T18:08:40.933Z,10.85
2023-04-28T18:11:09.995Z,10.84
2023-04-28T18:13:36.825Z,10.82
2023-04-28T18:16:04.983Z,10.82
2023-04-28T18:18:35.282Z,10.84
2023-04-28T18:21:02.594Z,10.82
2023-04-28T18:23:30.518Z,10.79
2023-04-28T18:25:57.225Z,10.76
2023-04-28T18:28:24.143Z,10.76
2023-04-28T18:30:50.830Z,10.76
2023-04-28T18:33:23.099Z,10.75
2023-04-28T18:36:01.794Z,10.74
2023-04-28T18:38:28.540Z,10.74
2023-04-28T18:40:55.069Z,10.75
2023-04-28T18:43:23.545Z,10.77
2023-04-28T18:45:50.155Z,10.77
2023-04-28T18:48:16.832Z,10.77
2023-04-28T18:50:43.515Z,10.77
2023-04-28T18:53:10.796Z,10.75
2023-04-28T18:55:37.441Z,10.74
2023-04-28T18:58:04.223Z,10.73
2023-04-28T19:00:32.288Z,10.78
2023-04-28T19:02:58.923Z,10.92
2023-04-28T19:05:25.973Z,10.92
2023-04-28T19:07:52.435Z,10.92
2023-04-28T19:10:19.112Z,11.00
2023-04-28T19:12:45.644Z,11.05
2023-04-28T19:15:12.592Z,11.09
2023-04-28T19:17:39.654Z,11.05
2023-04-28T19:20:06.932Z,11.22
2023-04-28T19:22:38.093Z,11.17
2023-04-28T19:25:06.848Z,11.13
2023-04-28T19:27:38.693Z,11.05
2023-04-28T19:30:07.459Z,11.09
2023-04-28T19:32:34.589Z,11.06
2023-04-28T19:35:04.987Z,11.14
2023-04-28T19:37:35.104Z,11.07
2023-04-28T19:40:02.833Z,11.02
2023-04-28T19:42:30.689Z,10.98
2023-04-28T19:44:58.574Z,11.03
2023-04-28T19:47:31.483Z,11.05
2023-04-28T19:49:57.986Z,11.06
2023-04-28T19:52:24.579Z,11.10
2023-04-28T19:54:51.958Z,11.02
2023-04-28T19:57:19.162Z,11.01
2023-04-28T19:59:46.996Z,11.14
2023-04-28T20:02:14.137Z,11.07
2023-04-28T20:04:40.941Z,11.06
2023-04-28T20:07:08.669Z,11.03
2023-04-28T20:09:37.297Z,11.01
2023-04-28T20:12:05.881Z,11.01
2023-04-28T20:14:33.163Z,10.98
2023-04-28T20:17:02.357Z,10.98
2023-04-28T20:19:29.140Z,10.97
2023-04-28T20:21:56.093Z,10.98
2023-04-28T20:24:22.912Z,11.07
2023-04-28T20:26:50.163Z,11.05
2023-04-28T20:29:16.801Z,10.98
2023-04-28T20:31:43.420Z,11.04
2023-04-28T20:34:10.006Z,11.09
2023-04-28T20:36:37.938Z,11.02
2023-04-28T20:39:05.218Z,10.99
2023-04-28T20:41:32.650Z,10.95
2023-04-28T20:43:59.156Z,10.96
2023-04-28T20:46:25.672Z,10.96
2023-04-28T20:48:52.203Z,11.00
2023-04-28T20:51:18.718Z,10.92
2023-04-28T20:53:45.233Z,10.91
2023-04-28T20:56:12.111Z,10.96
2023-04-28T20:58:42.292Z,10.91
2023-04-28T21:01:09.400Z,10.91
2023-04-28T21:03:36.083Z,10.90
2023-04-28T21:06:02.617Z,10.86
2023-04-28T21:08:30.179Z,10.92
2023-04-28T21:10:56.682Z,10.84
2023-04-28T21:13:23.221Z,10.82
2023-04-28T21:15:49.936Z,10.84
2023-04-28T21:18:16.634Z,10.77
2023-04-28T21:20:43.147Z,10.68
2023-04-28T21:23:09.940Z,10.59
2023-04-28T21:25:36.788Z,10.55
2023-04-28T21:28:03.428Z,10.47
2023-04-28T21:30:30.123Z,10.47
2023-04-28T21:32:56.749Z,10.39
2023-04-28T21:35:23.266Z,10.37
2023-04-28T21:37:49.729Z,10.49
2023-04-28T21:40:17.644Z,10.44
2023-04-28T21:42:45.426Z,10.39
2023-04-28T21:45:12.004Z,10.39
2023-04-28T21:47:39.140Z,10.48
2023-04-28T21:50:07.831Z,10.48
2023-04-28T21:52:34.358Z,10.45
2023-04-28T21:55:00.931Z,10.51
2023-04-28T21:57:27.513Z,10.59
2023-04-28T21:59:54.000Z,10.57
2023-04-28T22:02:20.662Z,10.55
2023-04-28T22:04:47.585Z,10.48
2023-04-28T22:07:14.120Z,10.44
2023-04-28T22:09:40.633Z,10.52
2023-04-28T22:12:07.139Z,10.59
2023-04-28T22:17:03.098Z,10.57
2023-04-28T22:19:29.615Z,10.50
2023-04-28T22:21:56.148Z,10.45
2023-04-28T22:24:22.647Z,10.43
2023-04-28T22:26:49.850Z,10.47
2023-04-28T22:29:16.397Z,10.45
2023-04-28T22:31:42.955Z,10.49
2023-04-28T22:34:10.334Z,10.46
2023-04-28T22:36:37.414Z,10.44
2023-04-28T22:39:05.521Z,10.43
2023-04-28T22:41:32.109Z,10.43
2023-04-28T22:43:58.616Z,10.43
2023-04-28T22:46:25.837Z,10.43
2023-04-28T22:48:52.359Z,10.41
2023-04-28T22:51:18.976Z,10.37
2023-04-28T22:53:46.521Z,10.31
2023-04-28T22:56:13.046Z,10.25
2023-04-28T22:58:39.563Z,10.22
2023-04-28T23:01:06.660Z,10.24
2023-04-28T23:03:34.004Z,10.27
2023-04-28T23:06:00.636Z,10.29
2023-04-28T23:08:27.145Z,10.32
2023-04-28T23:10:56.545Z,10.32
2023-04-28T23:13:23.353Z,10.36
2023-04-28T23:15:49.876Z,10.38
2023-04-28T23:18:16.456Z,10.37
2023-04-28T23:20:43.006Z,10.35
2023-04-28T23:23:09.530Z,10.30
2023-04-28T23:25:36.375Z,10.27
2023-04-28T23:28:03.235Z,10.24
2023-04-28T23:30:29.748Z,10.20
2023-04-28T23:32:56.542Z,10.17
2023-04-28T23:35:23.311Z,10.18
2023-04-28T23:37:49.777Z,10.16
2023-04-28T23:40:16.371Z,10.18
2023-04-28T23:42:42.811Z,10.09
2023-04-28T23:45:10.175Z,10.02
2023-04-28T23:47:36.945Z,9.92
2023-04-28T23:50:04.968Z,9.82
2023-04-28T23:52:32.038Z,9.78
2023-04-28T23:54:59.072Z,9.75
2023-04-28T23:57:25.779Z,9.74
2023-04-28T23:59:52.389Z,9.78
